sensor_id;sensor_type;location;lat;lon;timestamp;pressure;altitude;pressure_sealevel;temperature;humidity
64698;BME280;51124;53.394;-6.294;2024-02-21T00:00:51;100479.98;;;16.86;9.24
64698;BME280;51124;53.394;-6.294;2024-02-21T00:03:19;100464.55;;;16.43;9.11
64698;BME280;51124;53.394;-6.294;2024-02-21T00:05:46;100456.78;;;16.11;9.26
64698;BME280;51124;53.394;-6.294;2024-02-21T00:08:14;100425.11;;;16.07;9.19
64698;BME280;51124;53.394;-6.294;2024-02-21T00:10:41;100400.55;;;16.38;9.11
64698;BME280;51124;53.394;-6.294;2024-02-21T00:13:09;100387.98;;;15.93;9.12
64698;BME280;51124;53.394;-6.294;2024-02-21T00:15:36;100375.81;;;15.58;9.18
64698;BME280;51124;53.394;-6.294;2024-02-21T00:18:04;100367.15;;;16.16;9.14
64698;BME280;51124;53.394;-6.294;2024-02-21T00:20:31;100350.12;;;17.77;9.05
64698;BME280;51124;53.394;-6.294;2024-02-21T00:22:59;100342.69;;;18.58;9.54
64698;BME280;51124;53.394;-6.294;2024-02-21T00:25:26;100346.85;;;18.14;9.98
64698;BME280;51124;53.394;-6.294;2024-02-21T00:27:54;100348.04;;;17.57;10.04
64698;BME280;51124;53.394;-6.294;2024-02-21T00:30:21;100348.03;;;15.84;9.93
64698;BME280;51124;53.394;-6.294;2024-02-21T00:32:49;100339.46;;;19.65;10.22
64698;BME280;51124;53.394;-6.294;2024-02-21T00:35:17;100347.35;;;19.40;10.66
64698;BME280;51124;53.394;-6.294;2024-02-21T00:37:45;100352.56;;;19.53;11.01
64698;BME280;51124;53.394;-6.294;2024-02-21T00:40:13;100342.95;;;19.62;11.05
64698;BME280;51124;53.394;-6.294;2024-02-21T00:42:41;100322.34;;;18.90;11.24
64698;BME280;51124;53.394;-6.294;2024-02-21T00:45:09;100309.43;;;18.75;11.33
64698;BME280;51124;53.394;-6.294;2024-02-21T00:47:37;100302.18;;;18.80;11.40
64698;BME280;51124;53.394;-6.294;2024-02-21T00:50:05;100292.89;;;18.88;11.45
64698;BME280;51124;53.394;-6.294;2024-02-21T00:52:34;100281.40;;;19.09;11.45
64698;BME280;51124;53.394;-6.294;2024-02-21T00:55:01;100275.20;;;18.83;11.40
64698;BME280;51124;53.394;-6.294;2024-02-21T00:57:29;100269.60;;;19.13;11.42
64698;BME280;51124;53.394;-6.294;2024-02-21T00:59:57;100265.41;;;18.85;11.56
64698;BME280;51124;53.394;-6.294;2024-02-21T01:02:26;100267.01;;;19.24;11.51
64698;BME280;51124;53.394;-6.294;2024-02-21T01:04:53;100258.25;;;19.05;11.58
64698;BME280;51124;53.394;-6.294;2024-02-21T01:07:21;100251.77;;;18.90;11.50
64698;BME280;51124;53.394;-6.294;2024-02-21T01:09:49;100247.05;;;18.83;11.56
64698;BME280;51124;53.394;-6.294;2024-02-21T01:12:17;100237.18;;;18.82;11.61
64698;BME280;51124;53.394;-6.294;2024-02-21T01:14:45;100227.48;;;18.45;11.60
64698;BME280;51124;53.394;-6.294;2024-02-21T01:17:12;100218.57;;;18.71;11.57
64698;BME280;51124;53.394;-6.294;2024-02-21T01:19:40;100211.24;;;18.71;11.52
64698;BME280;51124;53.394;-6.294;2024-02-21T01:22:08;100194.18;;;17.67;11.60
64698;BME280;51124;53.394;-6.294;2024-02-21T01:24:36;100195.75;;;16.68;11.21
64698;BME280;51124;53.394;-6.294;2024-02-21T01:27:03;100181.12;;;16.02;10.86
64698;BME280;51124;53.394;-6.294;2024-02-21T01:29:31;100169.86;;;16.15;10.43
64698;BME280;51124;53.394;-6.294;2024-02-21T01:31:58;100152.32;;;17.07;10.13
64698;BME280;51124;53.394;-6.294;2024-02-21T01:34:25;100144.74;;;16.73;10.09
64698;BME280;51124;53.394;-6.294;2024-02-21T01:36:52;100131.42;;;16.33;10.01
64698;BME280;51124;53.394;-6.294;2024-02-21T01:39:20;100121.93;;;16.15;9.72
64698;BME280;51124;53.394;-6.294;2024-02-21T01:41:47;100122.07;;;15.80;9.67
64698;BME280;51124;53.394;-6.294;2024-02-21T01:44:15;100117.92;;;15.84;9.54
64698;BME280;51124;53.394;-6.294;2024-02-21T01:46:42;100112.16;;;16.27;9.51
64698;BME280;51124;53.394;-6.294;2024-02-21T01:49:10;100101.21;;;16.48;9.41
64698;BME280;51124;53.394;-6.294;2024-02-21T01:51:37;100091.97;;;17.14;9.36
64698;BME280;51124;53.394;-6.294;2024-02-21T01:54:05;100073.58;;;16.39;9.31
64698;BME280;51124;53.394;-6.294;2024-02-21T01:56:33;100062.72;;;16.21;9.30
64698;BME280;51124;53.394;-6.294;2024-02-21T01:59:01;100046.00;;;16.62;9.08
64698;BME280;51124;53.394;-6.294;2024-02-21T02:01:29;100025.52;;;16.17;9.09
64698;BME280;51124;53.394;-6.294;2024-02-21T02:03:57;100013.76;;;15.74;9.09
64698;BME280;51124;53.394;-6.294;2024-02-21T02:06:26;99992.85;;;16.64;8.97
64698;BME280;51124;53.394;-6.294;2024-02-21T02:08:54;99981.40;;;16.78;9.04
64698;BME280;51124;53.394;-6.294;2024-02-21T02:11:21;99971.35;;;17.24;8.93
64698;BME280;51124;53.394;-6.294;2024-02-21T02:13:49;99961.16;;;17.02;8.94
64698;BME280;51124;53.394;-6.294;2024-02-21T02:16:16;99957.54;;;16.30;8.93
64698;BME280;51124;53.394;-6.294;2024-02-21T02:18:43;99958.43;;;17.25;8.83
64698;BME280;51124;53.394;-6.294;2024-02-21T02:21:14;99947.24;;;16.94;8.95
64698;BME280;51124;53.394;-6.294;2024-02-21T02:23:37;99929.79;;;16.22;9.00
64698;BME280;51124;53.394;-6.294;2024-02-21T02:26:05;99919.21;;;15.68;8.94
64698;BME280;51124;53.394;-6.294;2024-02-21T02:28:32;99916.40;;;16.63;8.91
64698;BME280;51124;53.394;-6.294;2024-02-21T02:30:59;99912.03;;;16.35;8.94
64698;BME280;51124;53.394;-6.294;2024-02-21T02:33:27;99898.71;;;16.09;8.88
64698;BME280;51124;53.394;-6.294;2024-02-21T02:35:54;99882.56;;;16.46;8.85
64698;BME280;51124;53.394;-6.294;2024-02-21T02:38:21;99873.88;;;16.23;8.78
64698;BME280;51124;53.394;-6.294;2024-02-21T02:40:49;99857.28;;;15.95;8.87
64698;BME280;51124;53.394;-6.294;2024-02-21T02:43:16;99850.46;;;16.19;8.92
64698;BME280;51124;53.394;-6.294;2024-02-21T02:45:44;99832.26;;;16.61;8.94
64698;BME280;51124;53.394;-6.294;2024-02-21T02:48:11;99826.19;;;16.68;8.94
64698;BME280;51124;53.394;-6.294;2024-02-21T02:50:38;99819.10;;;15.93;8.96
64698;BME280;51124;53.394;-6.294;2024-02-21T02:53:06;99797.10;;;16.66;8.90
64698;BME280;51124;53.394;-6.294;2024-02-21T02:55:33;99790.31;;;16.74;8.91
64698;BME280;51124;53.394;-6.294;2024-02-21T02:58:01;99778.45;;;16.44;8.97
64698;BME280;51124;53.394;-6.294;2024-02-21T03:00:28;99767.77;;;16.31;8.85
64698;BME280;51124;53.394;-6.294;2024-02-21T03:02:55;99744.54;;;17.01;8.83
64698;BME280;51124;53.394;-6.294;2024-02-21T03:05:23;99728.10;;;16.26;8.89
64698;BME280;51124;53.394;-6.294;2024-02-21T03:07:51;99721.00;;;16.91;8.76
64698;BME280;51124;53.394;-6.294;2024-02-21T03:10:18;99707.78;;;16.45;8.92
64698;BME280;51124;53.394;-6.294;2024-02-21T03:12:46;99696.43;;;16.71;8.91
64698;BME280;51124;53.394;-6.294;2024-02-21T03:15:14;99683.99;;;16.13;8.93
64698;BME280;51124;53.394;-6.294;2024-02-21T03:17:41;99677.80;;;16.34;8.65
64698;BME280;51124;53.394;-6.294;2024-02-21T03:20:09;99660.78;;;16.44;8.75
64698;BME280;51124;53.394;-6.294;2024-02-21T03:22:37;99647.67;;;16.30;8.80
64698;BME280;51124;53.394;-6.294;2024-02-21T03:25:05;99624.40;;;18.43;8.82
64698;BME280;51124;53.394;-6.294;2024-02-21T03:27:33;99604.14;;;18.38;9.34
64698;BME280;51124;53.394;-6.294;2024-02-21T03:30:01;99601.37;;;17.94;9.57
64698;BME280;51124;53.394;-6.294;2024-02-21T03:32:28;99581.84;;;16.67;9.55
64698;BME280;51124;53.394;-6.294;2024-02-21T03:34:56;99578.00;;;20.12;9.68
64698;BME280;51124;53.394;-6.294;2024-02-21T03:37:24;99581.66;;;20.35;10.14
64698;BME280;51124;53.394;-6.294;2024-02-21T03:39:52;99581.30;;;19.67;10.50
64698;BME280;51124;53.394;-6.294;2024-02-21T03:42:19;99566.21;;;19.90;10.69
64698;BME280;51124;53.394;-6.294;2024-02-21T03:44:47;99568.09;;;19.01;10.96
64698;BME280;51124;53.394;-6.294;2024-02-21T03:47:15;99559.33;;;19.48;10.96
64698;BME280;51124;53.394;-6.294;2024-02-21T03:49:43;99545.46;;;19.09;11.09
64698;BME280;51124;53.394;-6.294;2024-02-21T03:52:11;99510.21;;;19.63;11.05
64698;BME280;51124;53.394;-6.294;2024-02-21T03:54:38;99497.72;;;18.87;11.27
64698;BME280;51124;53.394;-6.294;2024-02-21T03:57:07;99490.29;;;18.57;11.23
64698;BME280;51124;53.394;-6.294;2024-02-21T03:59:35;99478.52;;;19.03;11.20
64698;BME280;51124;53.394;-6.294;2024-02-21T04:02:02;99471.73;;;18.56;11.35
64698;BME280;51124;53.394;-6.294;2024-02-21T04:04:30;99451.02;;;18.59;11.25
64698;BME280;51124;53.394;-6.294;2024-02-21T04:06:58;99439.54;;;18.87;11.32
64698;BME280;51124;53.394;-6.294;2024-02-21T04:09:26;99424.24;;;18.82;11.37
64698;BME280;51124;53.394;-6.294;2024-02-21T04:11:54;99413.49;;;19.13;11.25
64698;BME280;51124;53.394;-6.294;2024-02-21T04:14:21;99404.21;;;18.55;11.18
64698;BME280;51124;53.394;-6.294;2024-02-21T04:16:49;99393.95;;;19.11;11.20
64698;BME280;51124;53.394;-6.294;2024-02-21T04:19:17;99382.26;;;18.95;11.28
64698;BME280;51124;53.394;-6.294;2024-02-21T04:21:45;99384.28;;;19.37;11.28
64698;BME280;51124;53.394;-6.294;2024-02-21T04:24:12;99375.88;;;18.44;11.36
64698;BME280;51124;53.394;-6.294;2024-02-21T04:26:40;99351.06;;;16.90;11.10
64698;BME280;51124;53.394;-6.294;2024-02-21T04:29:07;99337.72;;;16.33;10.70
64698;BME280;51124;53.394;-6.294;2024-02-21T04:31:34;99326.55;;;16.45;10.41
64698;BME280;51124;53.394;-6.294;2024-02-21T04:34:02;99313.47;;;16.50;10.07
64698;BME280;51124;53.394;-6.294;2024-02-21T04:36:29;99306.47;;;17.11;9.89
64698;BME280;51124;53.394;-6.294;2024-02-21T04:38:56;99303.22;;;16.17;9.88
64698;BME280;51124;53.394;-6.294;2024-02-21T04:41:24;99298.22;;;16.31;9.72
64698;BME280;51124;53.394;-6.294;2024-02-21T04:43:51;99289.60;;;16.48;9.54
64698;BME280;51124;53.394;-6.294;2024-02-21T04:46:19;99270.87;;;16.11;9.47
64698;BME280;51124;53.394;-6.294;2024-02-21T04:48:46;99263.31;;;16.28;9.48
64698;BME280;51124;53.394;-6.294;2024-02-21T04:51:14;99253.70;;;16.38;9.28
64698;BME280;51124;53.394;-6.294;2024-02-21T04:53:41;99236.33;;;16.83;9.24
64698;BME280;51124;53.394;-6.294;2024-02-21T04:56:08;99225.30;;;16.32;9.19
64698;BME280;51124;53.394;-6.294;2024-02-21T04:58:39;99216.50;;;16.87;9.08
64698;BME280;51124;53.394;-6.294;2024-02-21T05:01:07;99204.43;;;16.95;9.01
64698;BME280;51124;53.394;-6.294;2024-02-21T05:03:34;99194.52;;;16.95;8.96
64698;BME280;51124;53.394;-6.294;2024-02-21T05:06:01;99172.19;;;16.43;8.96
64698;BME280;51124;53.394;-6.294;2024-02-21T05:08:29;99158.27;;;17.44;8.85
64698;BME280;51124;53.394;-6.294;2024-02-21T05:10:56;99152.46;;;17.01;8.95
64698;BME280;51124;53.394;-6.294;2024-02-21T05:13:24;99147.01;;;17.70;8.78
64698;BME280;51124;53.394;-6.294;2024-02-21T05:15:51;99140.74;;;16.55;8.90
64698;BME280;51124;53.394;-6.294;2024-02-21T05:18:18;99131.29;;;16.65;8.92
64698;BME280;51124;53.394;-6.294;2024-02-21T05:20:46;99122.65;;;16.77;8.85
64698;BME280;51124;53.394;-6.294;2024-02-21T05:23:13;99111.97;;;16.57;8.85
64698;BME280;51124;53.394;-6.294;2024-02-21T05:25:40;99101.71;;;16.54;8.83
64698;BME280;51124;53.394;-6.294;2024-02-21T05:28:08;99097.98;;;16.13;8.72
64698;BME280;51124;53.394;-6.294;2024-02-21T05:30:35;99087.14;;;16.56;8.72
64698;BME280;51124;53.394;-6.294;2024-02-21T05:33:05;99085.04;;;17.17;8.73
64698;BME280;51124;53.394;-6.294;2024-02-21T05:35:33;99073.29;;;16.41;8.72
64698;BME280;51124;53.394;-6.294;2024-02-21T05:38:01;99062.22;;;16.49;8.73
64698;BME280;51124;53.394;-6.294;2024-02-21T05:40:28;99057.15;;;17.11;8.56
64698;BME280;51124;53.394;-6.294;2024-02-21T05:42:55;99047.01;;;16.26;8.66
64698;BME280;51124;53.394;-6.294;2024-02-21T05:45:23;99030.43;;;16.94;8.60
64698;BME280;51124;53.394;-6.294;2024-02-21T05:47:50;99017.78;;;17.08;8.62
64698;BME280;51124;53.394;-6.294;2024-02-21T05:50:18;99004.06;;;17.27;8.67
64698;BME280;51124;53.394;-6.294;2024-02-21T05:52:45;98996.34;;;16.62;8.65
64698;BME280;51124;53.394;-6.294;2024-02-21T05:55:12;98985.91;;;17.46;8.55
64698;BME280;51124;53.394;-6.294;2024-02-21T05:57:40;98972.60;;;17.47;8.47
64698;BME280;51124;53.394;-6.294;2024-02-21T06:00:11;98971.86;;;18.08;8.66
64698;BME280;51124;53.394;-6.294;2024-02-21T06:02:38;98965.19;;;17.00;8.56
64698;BME280;51124;53.394;-6.294;2024-02-21T06:05:06;98942.54;;;17.43;8.57
64698;BME280;51124;53.394;-6.294;2024-02-21T06:07:34;98931.86;;;17.74;8.60
64698;BME280;51124;53.394;-6.294;2024-02-21T06:10:02;98914.08;;;16.92;8.57
64698;BME280;51124;53.394;-6.294;2024-02-21T06:12:29;98899.21;;;17.95;8.58
64698;BME280;51124;53.394;-6.294;2024-02-21T06:14:57;98894.12;;;16.87;8.64
64698;BME280;51124;53.394;-6.294;2024-02-21T06:17:24;98896.31;;;16.55;8.69
64698;BME280;51124;53.394;-6.294;2024-02-21T06:19:51;98884.77;;;16.80;8.57
64698;BME280;51124;53.394;-6.294;2024-02-21T06:22:19;98864.72;;;17.14;8.41
64698;BME280;51124;53.394;-6.294;2024-02-21T06:24:46;98855.79;;;16.89;8.41
64698;BME280;51124;53.394;-6.294;2024-02-21T06:27:14;98853.81;;;17.58;8.26
64698;BME280;51124;53.394;-6.294;2024-02-21T06:29:41;98836.72;;;19.75;8.50
64698;BME280;51124;53.394;-6.294;2024-02-21T06:32:09;98822.25;;;19.42;8.88
64698;BME280;51124;53.394;-6.294;2024-02-21T06:34:36;98810.38;;;18.13;9.14
64698;BME280;51124;53.394;-6.294;2024-02-21T06:37:04;98800.52;;;17.80;9.22
64698;BME280;51124;53.394;-6.294;2024-02-21T06:39:32;98800.09;;;21.24;9.21
64698;BME280;51124;53.394;-6.294;2024-02-21T06:41:59;98808.89;;;20.91;9.88
64698;BME280;51124;53.394;-6.294;2024-02-21T06:44:28;98792.15;;;21.36;9.92
64698;BME280;51124;53.394;-6.294;2024-02-21T06:46:55;98787.41;;;20.25;10.31
64698;BME280;51124;53.394;-6.294;2024-02-21T06:49:23;98778.03;;;20.47;10.28
64698;BME280;51124;53.394;-6.294;2024-02-21T06:51:51;98766.09;;;20.55;10.37
64698;BME280;51124;53.394;-6.294;2024-02-21T06:54:19;98761.30;;;20.43;10.43
64698;BME280;51124;53.394;-6.294;2024-02-21T06:56:46;98749.26;;;20.64;10.45
64698;BME280;51124;53.394;-6.294;2024-02-21T06:59:14;98744.48;;;20.57;10.45
64698;BME280;51124;53.394;-6.294;2024-02-21T07:01:44;98751.00;;;19.90;10.55
64698;BME280;51124;53.394;-6.294;2024-02-21T07:04:12;98743.06;;;20.78;10.50
64698;BME280;51124;53.394;-6.294;2024-02-21T07:06:39;98740.84;;;20.02;10.65
64698;BME280;51124;53.394;-6.294;2024-02-21T07:09:07;98729.37;;;20.36;10.52
64698;BME280;51124;53.394;-6.294;2024-02-21T07:11:35;98714.49;;;20.16;10.64
64698;BME280;51124;53.394;-6.294;2024-02-21T07:14:03;98698.50;;;20.34;10.47
64698;BME280;51124;53.394;-6.294;2024-02-21T07:16:31;98701.02;;;20.00;10.66
64698;BME280;51124;53.394;-6.294;2024-02-21T07:18:59;98695.95;;;19.97;10.70
64698;BME280;51124;53.394;-6.294;2024-02-21T07:21:26;98696.16;;;21.01;10.55
64698;BME280;51124;53.394;-6.294;2024-02-21T07:23:54;98677.31;;;20.38;10.62
64698;BME280;51124;53.394;-6.294;2024-02-21T07:26:22;98665.64;;;20.53;10.66
64698;BME280;51124;53.394;-6.294;2024-02-21T07:28:50;98668.74;;;19.75;10.53
64698;BME280;51124;53.394;-6.294;2024-02-21T07:31:17;98646.88;;;18.81;10.42
64698;BME280;51124;53.394;-6.294;2024-02-21T07:33:44;98655.62;;;18.91;9.90
64698;BME280;51124;53.394;-6.294;2024-02-21T07:36:14;98646.03;;;18.21;9.53
64698;BME280;51124;53.394;-6.294;2024-02-21T07:38:42;98630.02;;;18.26;9.48
64698;BME280;51124;53.394;-6.294;2024-02-21T07:41:09;98626.50;;;18.43;9.52
64698;BME280;51124;53.394;-6.294;2024-02-21T07:43:37;98629.19;;;17.75;9.57
64698;BME280;51124;53.394;-6.294;2024-02-21T07:46:04;98608.23;;;16.74;9.48
64698;BME280;51124;53.394;-6.294;2024-02-21T07:48:32;98609.55;;;17.02;9.39
64698;BME280;51124;53.394;-6.294;2024-02-21T07:50:59;98590.56;;;17.14;9.36
64698;BME280;51124;53.394;-6.294;2024-02-21T07:53:26;98581.58;;;17.28;9.25
64698;BME280;51124;53.394;-6.294;2024-02-21T07:55:54;98580.59;;;17.87;9.09
64698;BME280;51124;53.394;-6.294;2024-02-21T07:58:21;98586.24;;;17.90;9.10
64698;BME280;51124;53.394;-6.294;2024-02-21T08:00:49;98581.48;;;17.25;9.05
64698;BME280;51124;53.394;-6.294;2024-02-21T08:03:16;98576.64;;;17.17;8.89
64698;BME280;51124;53.394;-6.294;2024-02-21T08:05:43;98577.66;;;16.57;8.85
64698;BME280;51124;53.394;-6.294;2024-02-21T08:08:11;98569.22;;;16.93;8.76
64698;BME280;51124;53.394;-6.294;2024-02-21T08:10:39;98560.10;;;17.21;8.74
64698;BME280;51124;53.394;-6.294;2024-02-21T08:13:06;98559.03;;;17.03;8.65
64698;BME280;51124;53.394;-6.294;2024-02-21T08:15:34;98555.62;;;18.07;8.64
64698;BME280;51124;53.394;-6.294;2024-02-21T08:18:01;98549.28;;;17.80;8.69
64698;BME280;51124;53.394;-6.294;2024-02-21T08:20:29;98537.73;;;17.33;8.38
64698;BME280;51124;53.394;-6.294;2024-02-21T08:22:56;98529.10;;;18.19;8.31
64698;BME280;51124;53.394;-6.294;2024-02-21T08:25:24;98519.00;;;18.36;8.30
64698;BME280;51124;53.394;-6.294;2024-02-21T08:27:53;98522.85;;;18.80;8.13
64698;BME280;51124;53.394;-6.294;2024-02-21T08:30:20;98504.89;;;17.95;8.17
64698;BME280;51124;53.394;-6.294;2024-02-21T08:32:48;98505.30;;;18.55;8.16
64698;BME280;51124;53.394;-6.294;2024-02-21T08:35:15;98507.14;;;19.24;7.97
64698;BME280;51124;53.394;-6.294;2024-02-21T08:37:43;98506.17;;;19.03;8.54
64698;BME280;51124;53.394;-6.294;2024-02-21T08:40:11;98479.88;;;19.61;8.20
64698;BME280;51124;53.394;-6.294;2024-02-21T08:42:38;98474.42;;;19.04;8.10
64698;BME280;51124;53.394;-6.294;2024-02-21T08:45:07;98483.20;;;19.19;8.38
64698;BME280;51124;53.394;-6.294;2024-02-21T08:47:34;98475.25;;;20.28;8.22
64698;BME280;51124;53.394;-6.294;2024-02-21T08:50:02;98470.69;;;19.77;8.22
64698;BME280;51124;53.394;-6.294;2024-02-21T08:52:29;98473.70;;;19.39;8.33
64698;BME280;51124;53.394;-6.294;2024-02-21T08:54:57;98469.92;;;20.89;8.16
64698;BME280;51124;53.394;-6.294;2024-02-21T08:57:24;98467.87;;;19.95;8.30
64698;BME280;51124;53.394;-6.294;2024-02-21T08:59:52;98468.78;;;19.69;8.44
64698;BME280;51124;53.394;-6.294;2024-02-21T09:02:19;98448.41;;;20.27;8.06
64698;BME280;51124;53.394;-6.294;2024-02-21T09:04:47;98458.67;;;20.21;8.31
64698;BME280;51124;53.394;-6.294;2024-02-21T09:07:14;98445.96;;;19.30;8.55
64698;BME280;51124;53.394;-6.294;2024-02-21T09:09:41;98445.39;;;20.44;8.34
64698;BME280;51124;53.394;-6.294;2024-02-21T09:12:09;98435.25;;;19.68;8.46
64698;BME280;51124;53.394;-6.294;2024-02-21T09:14:39;98450.12;;;19.30;8.40
64698;BME280;51124;53.394;-6.294;2024-02-21T09:17:06;98454.89;;;19.83;8.52
64698;BME280;51124;53.394;-6.294;2024-02-21T09:19:35;98455.55;;;19.59;8.37
64698;BME280;51124;53.394;-6.294;2024-02-21T09:22:02;98455.22;;;19.56;8.57
64698;BME280;51124;53.394;-6.294;2024-02-21T09:24:30;98457.14;;;19.35;8.43
64698;BME280;51124;53.394;-6.294;2024-02-21T09:26:57;98454.47;;;19.24;8.44
64698;BME280;51124;53.394;-6.294;2024-02-21T09:29:25;98462.66;;;19.71;8.32
64698;BME280;51124;53.394;-6.294;2024-02-21T09:31:52;98465.44;;;20.15;8.25
64698;BME280;51124;53.394;-6.294;2024-02-21T09:34:19;98463.59;;;21.35;8.54
64698;BME280;51124;53.394;-6.294;2024-02-21T09:36:47;98451.83;;;21.98;8.88
64698;BME280;51124;53.394;-6.294;2024-02-21T09:39:14;98463.38;;;21.77;9.19
64698;BME280;51124;53.394;-6.294;2024-02-21T09:41:50;98462.53;;;21.36;9.13
64698;BME280;51124;53.394;-6.294;2024-02-21T09:44:08;98462.54;;;20.37;9.32
64698;BME280;51124;53.394;-6.294;2024-02-21T09:46:44;98466.27;;;23.08;9.78
64698;BME280;51124;53.394;-6.294;2024-02-21T09:49:11;98460.43;;;23.25;9.79
64698;BME280;51124;53.394;-6.294;2024-02-21T09:51:32;98446.40;;;22.87;10.01
64698;BME280;51124;53.394;-6.294;2024-02-21T09:54:02;98457.60;;;22.24;10.61
64698;BME280;51124;53.394;-6.294;2024-02-21T09:56:30;98466.15;;;22.13;10.48
64698;BME280;51124;53.394;-6.294;2024-02-21T09:58:59;98454.29;;;21.75;10.66
64698;BME280;51124;53.394;-6.294;2024-02-21T10:01:28;98443.94;;;21.81;10.68
64698;BME280;51124;53.394;-6.294;2024-02-21T10:03:56;98458.96;;;22.03;10.75
64698;BME280;51124;53.394;-6.294;2024-02-21T10:06:24;98452.26;;;21.78;10.88
64698;BME280;51124;53.394;-6.294;2024-02-21T10:08:54;98461.21;;;20.84;11.32
64698;BME280;51124;53.394;-6.294;2024-02-21T10:11:24;98467.22;;;21.97;10.81
64698;BME280;51124;53.394;-6.294;2024-02-21T10:14:02;98471.73;;;21.69;10.93
64698;BME280;51124;53.394;-6.294;2024-02-21T10:16:19;98478.31;;;22.30;10.71
64698;BME280;51124;53.394;-6.294;2024-02-21T10:18:47;98480.87;;;22.43;10.67
64698;BME280;51124;53.394;-6.294;2024-02-21T10:21:15;98470.77;;;21.85;11.02
64698;BME280;51124;53.394;-6.294;2024-02-21T10:23:45;98469.27;;;21.68;11.01
64698;BME280;51124;53.394;-6.294;2024-02-21T10:26:14;98473.30;;;22.70;10.83
64698;BME280;51124;53.394;-6.294;2024-02-21T10:28:42;98471.32;;;21.81;10.99
64698;BME280;51124;53.394;-6.294;2024-02-21T10:31:10;98484.86;;;21.83;11.08
64698;BME280;51124;53.394;-6.294;2024-02-21T10:33:38;98483.77;;;21.98;11.13
64698;BME280;51124;53.394;-6.294;2024-02-21T10:36:10;98490.79;;;20.92;10.88
64698;BME280;51124;53.394;-6.294;2024-02-21T10:38:38;98491.63;;;19.38;10.77
64698;BME280;51124;53.394;-6.294;2024-02-21T10:41:07;98498.95;;;20.14;10.00
64698;BME280;51124;53.394;-6.294;2024-02-21T10:43:40;98502.79;;;19.78;9.60
64698;BME280;51124;53.394;-6.294;2024-02-21T10:46:08;98514.22;;;21.23;9.35
64698;BME280;51124;53.394;-6.294;2024-02-21T10:48:44;98517.08;;;19.61;9.87
64698;BME280;51124;53.394;-6.294;2024-02-21T10:51:07;98528.04;;;19.35;9.38
64698;BME280;51124;53.394;-6.294;2024-02-21T10:53:34;98525.43;;;20.30;9.30
64698;BME280;51124;53.394;-6.294;2024-02-21T10:56:11;98524.43;;;19.86;8.93
64698;BME280;51124;53.394;-6.294;2024-02-21T10:58:32;98525.70;;;20.08;8.97
64698;BME280;51124;53.394;-6.294;2024-02-21T11:01:00;98526.98;;;22.98;9.70
64698;BME280;51124;53.394;-6.294;2024-02-21T11:03:29;98540.26;;;22.55;10.17
64698;BME280;51124;53.394;-6.294;2024-02-21T11:05:57;98537.10;;;17.74;10.25
64698;BME280;51124;53.394;-6.294;2024-02-21T11:08:25;98552.17;;;19.45;9.48
64698;BME280;51124;53.394;-6.294;2024-02-21T11:10:56;98546.82;;;19.16;9.38
64698;BME280;51124;53.394;-6.294;2024-02-21T11:13:32;98553.40;;;18.84;9.43
64698;BME280;51124;53.394;-6.294;2024-02-21T11:15:49;98561.80;;;19.47;9.18
64698;BME280;51124;53.394;-6.294;2024-02-21T11:18:25;98567.21;;;19.30;8.95
64698;BME280;51124;53.394;-6.294;2024-02-21T11:20:49;98562.99;;;19.90;8.75
64698;BME280;51124;53.394;-6.294;2024-02-21T11:23:26;98587.88;;;20.71;8.63
64698;BME280;51124;53.394;-6.294;2024-02-21T11:25:43;98582.88;;;19.63;8.66
64698;BME280;51124;53.394;-6.294;2024-02-21T11:28:11;98616.99;;;19.29;9.03
64698;BME280;51124;53.394;-6.294;2024-02-21T11:30:38;98600.81;;;19.81;8.69
64698;BME280;51124;53.394;-6.294;2024-02-21T11:33:08;98603.95;;;19.68;8.62
64698;BME280;51124;53.394;-6.294;2024-02-21T11:35:36;98597.45;;;19.22;8.61
64698;BME280;51124;53.394;-6.294;2024-02-21T11:38:12;98600.83;;;19.81;8.54
64698;BME280;51124;53.394;-6.294;2024-02-21T11:40:30;98607.06;;;20.20;8.60
64698;BME280;51124;53.394;-6.294;2024-02-21T11:43:01;98610.37;;;19.74;8.40
64698;BME280;51124;53.394;-6.294;2024-02-21T11:45:28;98617.75;;;19.79;8.33
64698;BME280;51124;53.394;-6.294;2024-02-21T11:47:55;98607.33;;;19.75;8.57
64698;BME280;51124;53.394;-6.294;2024-02-21T11:50:23;98604.04;;;19.90;8.50
64698;BME280;51124;53.394;-6.294;2024-02-21T11:52:51;98595.83;;;19.24;8.44
64698;BME280;51124;53.394;-6.294;2024-02-21T11:55:18;98600.78;;;20.25;8.29
64698;BME280;51124;53.394;-6.294;2024-02-21T11:57:47;98609.69;;;19.18;8.55
64698;BME280;51124;53.394;-6.294;2024-02-21T12:00:16;98610.37;;;19.47;8.40
64698;BME280;51124;53.394;-6.294;2024-02-21T12:02:44;98605.08;;;20.09;8.27
64698;BME280;51124;53.394;-6.294;2024-02-21T12:05:12;98606.45;;;18.07;8.69
64698;BME280;51124;53.394;-6.294;2024-02-21T12:07:39;98616.70;;;18.96;8.51
64698;BME280;51124;53.394;-6.294;2024-02-21T12:10:09;98608.70;;;19.91;8.44
64698;BME280;51124;53.394;-6.294;2024-02-21T12:12:37;98603.10;;;19.11;8.74
64698;BME280;51124;53.394;-6.294;2024-02-21T12:15:06;98610.55;;;19.28;8.70
64698;BME280;51124;53.394;-6.294;2024-02-21T12:17:34;98610.11;;;20.63;8.73
64698;BME280;51124;53.394;-6.294;2024-02-21T12:20:02;98610.14;;;19.79;8.34
64698;BME280;51124;53.394;-6.294;2024-02-21T12:22:30;98600.24;;;19.40;8.61
64698;BME280;51124;53.394;-6.294;2024-02-21T12:24:58;98611.97;;;20.17;8.48
64698;BME280;51124;53.394;-6.294;2024-02-21T12:27:25;98625.25;;;18.13;9.04
64698;BME280;51124;53.394;-6.294;2024-02-21T12:29:53;98614.70;;;19.32;8.97
64698;BME280;51124;53.394;-6.294;2024-02-21T12:32:20;98616.91;;;19.48;8.65
64698;BME280;51124;53.394;-6.294;2024-02-21T12:34:47;98610.80;;;18.25;8.98
64698;BME280;51124;53.394;-6.294;2024-02-21T12:37:15;98604.70;;;18.79;8.85
64698;BME280;51124;53.394;-6.294;2024-02-21T12:39:42;98603.75;;;18.87;8.80
64698;BME280;51124;53.394;-6.294;2024-02-21T12:42:09;98608.94;;;20.03;8.40
64698;BME280;51124;53.394;-6.294;2024-02-21T12:44:37;98604.40;;;20.75;8.16
64698;BME280;51124;53.394;-6.294;2024-02-21T12:47:05;98634.90;;;22.83;8.37
64698;BME280;51124;53.394;-6.294;2024-02-21T12:49:32;98625.15;;;22.06;8.96
64698;BME280;51124;53.394;-6.294;2024-02-21T12:52:00;98625.11;;;21.99;9.00
64698;BME280;51124;53.394;-6.294;2024-02-21T12:54:27;98631.61;;;19.79;9.27
64698;BME280;51124;53.394;-6.294;2024-02-21T12:56:55;98629.54;;;21.52;9.22